Nearby METAR Reports

 

PAWD - Seward, Alaska, USA
Distance from station: WNW 16mi, 27km
Updated: 08/20/2018 5:53am
Light rain, Mist, Overcast
Light rain, Mist, Overcast
 Wind from calm
Wind: Calm
Temperature: 54°F , 12°C
Dew Point: 54°F , 12°C
Humidity: 100%
Barometer: 30.13 inHg , 1020.3 hPa
Summary: Light rain, Mist
Clouds: Overcast
Visibility: 1 mile , 2 km
Cloud details: Overcast 400 ft
2018/08/20 13:53 PAWD 201353Z AUTO 00000KT 1SM -RA BR VV004 12/12 A3013 RMK AO2 RAE14B16 SLP204 P0001 T01220122 TSNO
PATO - Portage Glacier, Alaska, USA
Distance from station: N 54mi, 87km
Updated: 08/20/2018 5:53am
Light rain, Mist, Overcast
Light rain, Mist, Overcast
 Wind from SE
Wind: SE 14 mph , 22 km/h, Gust: 30 mph , 48 km/h
Temperature: 55°F , 13°C
Dew Point: 52°F , 11°C
Humidity: 88%
Barometer: 30.17 inHg , 1021.7 hPa
Summary: Light rain, Mist
Clouds: Overcast
Visibility: 4 miles , 6 km
Cloud details: Few Clouds 2000 ft
Partly cloudy 2600 ft
Overcast 3200 ft
2018/08/20 13:53 PATO 201353Z AUTO 14012G26KT 100V170 4SM -RA BR FEW020 SCT026 OVC032 13/11 A3017 RMK AO2 PK WND 12028/1342 RAB1254 SLP215 P0001 T01280111 TSNO
 
PASX - Soldotna, Alaska, USA
Distance from station: WNW 77mi, 124km
Updated: 08/20/2018 5:56am
Overcast
Overcast
 Wind from calm
Wind: Calm
Temperature: 54°F , 12°C
Dew Point: 50°F , 10°C
Humidity: 88%
Barometer: 30.11 inHg , 1019.6 hPa
Clouds: Overcast
Visibility: 10 miles , 16 km
Cloud details: Overcast 7500 ft
2018/08/20 13:56 PASX 201356Z AUTO 00000KT 10SM OVC075 12/10 A3011 RMK AO2 SLP205 T01170100
PAEN - Kenai, Alaska, USA
Distance from station: WNW 86mi, 139km
Updated: 08/20/2018 5:53am
Overcast
Overcast
 Wind from S
Wind: S 5 mph , 7 km/h
Temperature: 55°F , 13°C
Dew Point: 52°F , 11°C
Humidity: 88%
Barometer: 30.09 inHg , 1019 hPa
Clouds: Overcast
Visibility: 10 miles , 16 km
Cloud details: Mostly cloudy 7000 ft
Overcast 8500 ft
2018/08/20 13:53 PAEN 201353Z 18004KT 10SM BKN070 OVC085 13/11 A3009 RMK AO2 SLP189 T01280111
 
PANC - Anchorage Intl, Alaska, USA
Distance from station: NNW 88mi, 141km
Updated: 08/20/2018 5:53am
Mostly cloudy
Mostly cloudy
 Wind from calm
Wind: Calm
Temperature: 55°F , 13°C
Dew Point: 54°F , 12°C
Humidity: 94%
Barometer: 30.11 inHg , 1019.6 hPa
Clouds: Mostly cloudy
Visibility: 10 miles , 16 km
Cloud details: Few Clouds 300 ft
Mostly cloudy 7000 ft
2018/08/20 13:53 PANC 201353Z 00000KT 10SM FEW003 BKN070 13/12 A3011 RMK AO2 SLP196 T01280122
PALH - Anchorage/Lake H, Alaska, USA
Distance from station: NNW 88mi, 142km
Updated: 08/20/2018 5:53am
Overcast
Overcast
 Wind from calm
Wind: Calm
Temperature: 55°F , 13°C
Dew Point: 54°F , 12°C
Humidity: 94%
Barometer: 30.12 inHg , 1020 hPa
Clouds: Overcast
Visibility: 10 miles , 16 km
Cloud details: Partly cloudy 300 ft
Overcast 7500 ft
2018/08/20 13:53 PALH 201353Z 00000KT 10SM SCT003 OVC075 13/12 A3012 RMK AO2 SLP199 T01280122
 
PAMR - Anchorage/Merril, Alaska, USA
Distance from station: NNW 89mi, 143km
Updated: 08/20/2018 5:53am
Mist, Overcast
Mist, Overcast
 Wind from calm
Wind: Calm
Temperature: 55°F , 13°C
Dew Point: 55°F , 13°C
Humidity: 100%
Barometer: 30.11 inHg , 1019.6 hPa
Summary: Mist
Clouds: Overcast
Visibility: 6 miles , 10 km
Cloud details: Overcast 200 ft
2018/08/20 13:53 PAMR 201353Z 00000KT 6SM BR OVC002 13/13 A3011 RMK AO2 SLP197 T01280128
PAFR - Fort Richardson, Alaska, USA
Distance from station: NNW 90mi, 145km
Updated: 08/20/2018 6:03am
Fog, Mostly cloudy
Fog, Mostly cloudy
 Wind from calm
Wind: Calm
Temperature: 52°F , 11°C
Dew Point: 52°F , 11°C
Humidity: 100%
Barometer: 30.08 inHg , 1018.6 hPa
Summary: Fog
Clouds: Mostly cloudy
Visibility: 3/8 mile , 0.6 km
Cloud details: Mostly cloudy 100 ft
Mostly cloudy 21000 ft
2018/08/20 14:03 PAFR 201403Z AUTO 00000KT 3/8SM R17/3000FT FG BKN001 BKN210 11/11 A3008 RMK AO2 SLP193
 
PAHO - Homer, Alaska, USA
Distance from station: WSW 90mi, 146km
Updated: 08/20/2018 5:53am
Mostly cloudy
Mostly cloudy
 Wind from NE
Wind: NE 3 mph , 6 km/h
Temperature: 55°F , 13°C
Dew Point: 52°F , 11°C
Humidity: 88%
Barometer: 30.08 inHg , 1018.6 hPa
Clouds: Mostly cloudy
Visibility: 10 miles , 16 km
Cloud details: Mostly cloudy 7000 ft
2018/08/20 13:53 PAHO 201353Z AUTO 05003KT 10SM BKN070 13/11 A3008 RMK AO2 SLP185 T01280106 TSNO
PAED - Elmendorf Afb, Alaska, USA
Distance from station: NNW 91mi, 146km
Updated: 08/20/2018 6:02am
Mist, Overcast
Mist, Overcast
 Wind from calm
Wind: Calm
Temperature: 54°F , 12°C
Dew Point: 54°F , 12°C
Humidity: 100%
Barometer: 30.10 inHg , 1019.3 hPa
Summary: Mist
Clouds: Overcast
Visibility: 1 1/2 miles , 2.4 km
Cloud details: Overcast 200 ft
2018/08/20 14:02 PAED 201402Z 00000KT 1 1/2SM BR OVC002 12/12 A3010 RMK VIS 1/2 RWY24 SLP189
 
PABV - Birchwood, Alaska, USA
Distance from station: N 99mi, 160km
Updated: 08/20/2018 6:08am
Mist, Overcast
Mist, Overcast
 Wind from calm
Wind: Calm
Temperature: 54°F , 12°C
Dew Point: 54°F , 12°C
Humidity: 100%
Barometer: 30.12 inHg , 1020 hPa
Summary: Mist
Clouds: Overcast
Visibility: 4 miles , 6 km
Cloud details: Overcast 300 ft
2018/08/20 14:08 PABV 201408Z AUTO 00000KT 4SM BR OVC003 12/12 A3012 RMK AO2 $
PASO - Seldovia, Alaska, USA
Distance from station: WSW 101mi, 163km
Updated: 08/20/2018 5:53am
Clear
Clear
 Wind from calm
Wind: Calm
Temperature: 52°F , 11°C
Dew Point: 48°F , 9°C
Humidity: 88%
Barometer: 30.08 inHg , 1018.6 hPa
Clouds: Clear
Visibility: 10 miles , 16 km
2018/08/20 13:53 PASO 201353Z AUTO 00000KT 10SM CLR 11/09 A3008 RMK AO2 SLP185 T01060094 TSNO $
 
PAMD - Middleton Island, Alaska, USA
Distance from station: ESE 102mi, 164km
Updated: 08/20/2018 5:51am
Light rain, Fog, Overcast
Light rain, Fog, Overcast
 Wind from ESE
Wind: ESE 12 mph , 19 km/h
Temperature: 55°F , 13°C
Dew Point: 55°F , 13°C
Humidity: 100%
Barometer: 30.16 inHg , 1021.3 hPa
Summary: Light rain, Fog
Clouds: Overcast
Visibility: 1/4 mile , 0.4 km
Cloud details: Overcast 200 ft
2018/08/20 13:51 PAMD 201351Z AUTO 11010KT 1/4SM -RA FG OVC002 13/13 A3016 RMK AO2 SLP203 P0000 T01330133
PAAQ - Palmer, Alaska, USA
Distance from station: N 111mi, 178km
Updated: 08/19/2018 5:53pm
NOT Current
Overcast
Overcast
 Wind from varies
Wind: varies 5 mph , 7 km/h
Temperature: 57°F , 14°C
Dew Point: 55°F , 13°C
Humidity: 94%
Barometer: 30.15 inHg , 1021 hPa
Clouds: Overcast
Visibility: 10 miles , 16 km
Cloud details: Partly cloudy 4400 ft
Mostly cloudy 9000 ft
Overcast 11000 ft
2018/08/20 01:53 PAAQ 200153Z VRB04KT 10SM SCT044 BKN090 OVC110 14/13 A3015 RMK RAE00 SLP212 P0000 T01440128
 
PAVD - Valdez, Alaska, USA
Distance from station: NE 122mi, 196km
Updated: 08/20/2018 6:00am
Light rain, Mist, Overcast
Light rain, Mist, Overcast
 Wind from E
Wind: E 6 mph , 9 km/h
Temperature: 48°F , 9°C
Wind Chill: 45°F , 7°C
Dew Point: 48°F , 9°C
Humidity: 100%
Barometer: 30.25 inHg , 1024.4 hPa
Summary: Light rain, Mist
Clouds: Overcast
Visibility: 4 miles , 6 km
Cloud details: Mostly cloudy 200 ft
Mostly cloudy 1800 ft
Overcast 4200 ft
2018/08/20 14:00 PAVD 201400Z AUTO 09005KT 4SM -RA BR BKN002 BKN018 OVC042 09/09 A3025 RMK AO2 P0000
PACV - Cordova, Alaska, USA
Distance from station: ENE 125mi, 201km
Updated: 08/20/2018 5:53am
Overcast
Overcast
 Wind from E
Wind: E 3 mph , 6 km/h
Temperature: 57°F , 14°C
Dew Point: 54°F , 12°C
Humidity: 88%
Barometer: 30.24 inHg , 1024 hPa
Clouds: Overcast
Visibility: 10 miles , 16 km
Cloud details: Overcast 2800 ft
2018/08/20 13:53 PACV 201353Z 09003KT 10SM OVC028 14/12 A3024 RMK AO2 RAB08E18B44E53 SLP239 P0000 T01390122
 
PAZK - Eureka, Alaska, USA
Distance from station: NNE 147mi, 237km
Updated: 08/20/2018 5:56am
Clear
Clear
 Wind from SE
Wind: SE 3 mph , 6 km/h
Temperature: 43°F , 6°C
Dew Point: 39°F , 4°C
Humidity: 87%
Barometer: 30.16 inHg , 1021.3 hPa
Clouds: Clear
Visibility: 10 miles , 16 km
2018/08/20 13:56 PAZK 201356Z AUTO 14003KT 10SM CLR 06/04 A3016 RMK AO2 SLP240 T00560044
PATK - Talkeetna, Alaska, USA
Distance from station: NNW 163mi, 262km
Updated: 08/20/2018 5:53am
Overcast
Overcast
 Wind from calm
Wind: Calm
Temperature: 54°F , 12°C
Dew Point: 52°F , 11°C
Humidity: 94%
Barometer: 30.12 inHg , 1020 hPa
Clouds: Overcast
Visibility: 10 miles , 16 km
Cloud details: Overcast 7000 ft
2018/08/20 13:53 PATK 201353Z AUTO 00000KT 10SM OVC070 12/11 A3012 RMK AO2 SLP204 T01220111 TSNO
 
PALJ - Port Alsworth, Alaska, USA
Distance from station: W 183mi, 295km
Updated: 08/19/2018 8:50am
NOT Current
Overcast
Overcast
 Wind from NE
Wind: NE 14 mph , 22 km/h
Temperature: 61°F , 16°C
Dew Point: 50°F , 10°C
Humidity: 68%
Barometer: 30.00 inHg , 1015.9 hPa
Clouds: Overcast
Visibility: 30 miles , 48 km
Cloud details: Mostly cloudy 6000 ft
Overcast 8000 ft
2018/08/19 16:50 PALJ 191650Z 05012KT 30SM BKN060 OVC080 16/10 A3000 RMK EST PASS OPEN NOSPECI
PAGK - Gulkana, Alaska, USA
Distance from station: NE 190mi, 306km
Updated: 08/20/2018 5:53am
Few Clouds
Few Clouds
 Wind from S
Wind: S 12 mph , 19 km/h
Temperature: 52°F , 11°C
Dew Point: 48°F , 9°C
Humidity: 88%
Barometer: 30.19 inHg , 1022.4 hPa
Clouds: Few Clouds
Visibility: 10 miles , 16 km
Cloud details: Few Clouds 9000 ft
2018/08/20 13:53 PAGK 201353Z AUTO 18010KT 10SM FEW090 11/09 A3019 RMK AO2 SLP227 T01110089 TSNO
 
KLVK - Livermore, California, USA
Distance from station: NNE 31mi, 51km
Updated: 08/20/2018 5:53am
Mist, Smoke, Mostly cloudy
Mist, Smoke, Mostly cloudy
 Wind from calm
Wind: Calm
Temperature: 57°F , 14°C
Dew Point: 54°F , 12°C
Humidity: 88%
Barometer: 29.89 inHg , 1012.2 hPa
Summary: Mist, Smoke
Clouds: Mostly cloudy
Visibility: 3 miles , 5 km
Cloud details: Mostly cloudy 900 ft
2018/08/20 13:53 KLVK 201353Z 00000KT 3SM BR FU BKN009 14/12 A2989 RMK AO2 SLP117 T01390117

USA Weather Finder






Flag Counter